createdAt,value
2018-08-16T00:01:20.225Z,15.60
2018-08-16T00:03:48.439Z,15.60
2018-08-16T00:06:16.640Z,15.60
2018-08-16T00:08:44.821Z,15.60
2018-08-16T00:11:13.060Z,15.50
2018-08-16T00:13:41.212Z,15.50
2018-08-16T00:16:09.396Z,15.40
2018-08-16T00:21:05.786Z,15.50
2018-08-16T00:26:02.007Z,15.30
2018-08-16T00:43:18.037Z,15.00
2018-08-16T00:45:46.255Z,15.00
2018-08-16T00:48:14.464Z,15.00
2018-08-16T00:50:42.620Z,14.90
2018-08-16T00:53:10.797Z,14.90
2018-08-16T00:58:06.940Z,14.90
2018-08-16T01:00:35.144Z,14.80
2018-08-16T01:03:03.348Z,14.80
2018-08-16T01:05:31.560Z,14.80
2018-08-16T01:07:59.769Z,14.70
2018-08-16T01:15:23.766Z,14.90
2018-08-16T01:17:51.965Z,14.90
2018-08-16T01:20:20.187Z,14.80
2018-08-16T01:22:48.303Z,14.90
2018-08-16T01:25:16.429Z,14.70
2018-08-16T01:27:44.553Z,14.70
2018-08-16T01:30:12.701Z,14.60
2018-08-16T01:32:40.854Z,14.60
2018-08-16T01:35:09.789Z,14.50
2018-08-16T01:37:38.064Z,14.50
2018-08-16T01:40:07.089Z,14.50
2018-08-16T01:42:35.664Z,14.50
2018-08-16T01:45:03.908Z,14.60
2018-08-16T01:47:32.045Z,14.60
2018-08-16T01:50:00.160Z,14.50
2018-08-16T01:52:28.355Z,14.40
2018-08-16T01:54:56.568Z,14.40
2018-08-16T01:57:24.703Z,14.20
2018-08-16T01:59:52.828Z,14.10
2018-08-16T02:02:20.985Z,14.00
2018-08-16T02:04:49.220Z,14.00
2018-08-16T02:07:17.364Z,14.00
2018-08-16T02:09:46.938Z,14.00
2018-08-16T02:12:16.594Z,14.00
2018-08-16T02:14:44.869Z,14.00
2018-08-16T02:17:13.067Z,14.10
2018-08-16T02:19:41.224Z,14.10
2018-08-16T02:22:09.357Z,14.20
2018-08-16T02:24:37.556Z,14.20
2018-08-16T02:27:05.764Z,14.20
2018-08-16T02:29:33.928Z,14.20
2018-08-16T02:32:02.098Z,14.10
2018-08-16T02:34:30.252Z,14.20
2018-08-16T02:36:58.384Z,14.20
2018-08-16T02:39:26.556Z,14.20
2018-08-16T02:44:22.627Z,14.10
2018-08-16T02:46:50.792Z,14.10
2018-08-16T02:49:18.965Z,14.10
2018-08-16T02:51:47.104Z,14.00
2018-08-16T02:54:15.296Z,13.90
2018-08-16T02:56:43.446Z,13.90
2018-08-16T02:59:11.585Z,13.80
2018-08-16T03:01:39.748Z,13.80
2018-08-16T03:04:07.920Z,13.80
2018-08-16T03:06:36.076Z,13.70
2018-08-16T03:09:06.929Z,13.70
2018-08-16T03:11:35.074Z,13.70
2018-08-16T03:14:03.296Z,13.70
2018-08-16T03:16:31.421Z,13.70
2018-08-16T03:18:59.605Z,13.60
2018-08-16T03:21:27.745Z,13.70
2018-08-16T03:23:55.885Z,13.70
2018-08-16T03:26:24.024Z,13.60
2018-08-16T03:28:52.173Z,13.60
2018-08-16T03:31:20.296Z,13.60
2018-08-16T03:33:48.474Z,13.60
2018-08-16T03:38:44.531Z,13.50
2018-08-16T03:43:40.626Z,13.50
2018-08-16T03:46:08.792Z,13.50
2018-08-16T03:48:36.945Z,13.60
2018-08-16T03:51:05.652Z,13.60
2018-08-16T03:56:01.696Z,13.60
2018-08-16T03:58:29.910Z,13.60
2018-08-16T04:00:58.096Z,13.60
2018-08-16T04:03:26.293Z,13.50
2018-08-16T04:05:54.459Z,13.50
2018-08-16T04:08:22.616Z,13.60
2018-08-16T04:10:50.776Z,13.50
2018-08-16T04:13:18.917Z,13.50
2018-08-16T04:15:47.056Z,13.50
2018-08-16T04:18:15.181Z,13.60
2018-08-16T04:20:43.338Z,13.70
2018-08-16T04:23:11.468Z,13.70
2018-08-16T04:25:39.665Z,13.70
2018-08-16T04:30:35.711Z,13.60
2018-08-16T04:33:03.876Z,13.60
2018-08-16T04:35:32.128Z,13.70
2018-08-16T04:38:00.141Z,13.80
2018-08-16T04:40:28.523Z,13.80
2018-08-16T04:42:56.655Z,13.80
2018-08-16T04:45:24.793Z,13.90
2018-08-16T04:47:52.917Z,13.90
2018-08-16T04:50:21.110Z,14.00
2018-08-16T04:52:49.454Z,14.20
2018-08-16T04:55:17.832Z,14.20
2018-08-16T05:00:13.893Z,14.20
2018-08-16T05:02:42.024Z,14.30
2018-08-16T05:05:10.153Z,14.70
2018-08-16T05:07:38.369Z,15.20
2018-08-16T05:10:07.960Z,14.80
2018-08-16T05:15:06.205Z,14.50
2018-08-16T05:17:34.314Z,14.50
2018-08-16T05:20:02.440Z,14.50
2018-08-16T05:24:58.501Z,14.60
2018-08-16T05:27:26.623Z,14.60
2018-08-16T05:29:54.744Z,14.70
2018-08-16T05:32:22.895Z,14.90
2018-08-16T05:34:51.030Z,15.00
2018-08-16T05:37:19.193Z,15.10
2018-08-16T05:42:15.289Z,15.30
2018-08-16T05:44:43.407Z,16.10
2018-08-16T05:47:11.558Z,17.70
2018-08-16T05:49:39.695Z,18.60
2018-08-16T05:52:07.891Z,19.40
2018-08-16T05:54:36.013Z,19.20
2018-08-16T05:57:04.160Z,19.80
2018-08-16T05:59:32.332Z,20.10
2018-08-16T06:02:00.405Z,20.40
2018-08-16T06:04:28.517Z,21.10
2018-08-16T06:06:56.657Z,21.20
2018-08-16T06:09:24.840Z,21.50
2018-08-16T06:11:52.986Z,22.10
2018-08-16T06:14:21.508Z,22.30
2018-08-16T06:16:49.656Z,23.10
2018-08-16T06:19:17.796Z,22.80
2018-08-16T06:21:45.967Z,22.70
2018-08-16T06:26:42.589Z,23.70
2018-08-16T06:29:10.769Z,23.60
2018-08-16T06:34:07.093Z,24.50
2018-08-16T06:36:35.226Z,24.70
2018-08-16T06:43:59.233Z,25.20
2018-08-16T06:51:23.181Z,25.40
2018-08-16T06:53:51.329Z,26.00
2018-08-16T06:56:19.434Z,25.90
2018-08-16T06:58:47.580Z,25.60
2018-08-16T07:03:43.638Z,25.40
2018-08-16T07:06:11.770Z,25.20
2018-08-16T07:08:39.910Z,25.10
2018-08-16T07:16:03.917Z,24.50
2018-08-16T07:18:32.052Z,24.50
2018-08-16T07:21:00.189Z,24.60
2018-08-16T07:23:28.296Z,24.70
2018-08-16T07:25:56.693Z,25.20
2018-08-16T07:28:24.837Z,25.40
2018-08-16T07:30:53.833Z,25.60
2018-08-16T07:33:21.972Z,25.70
2018-08-16T07:35:50.090Z,26.00
2018-08-16T07:40:46.368Z,25.90
2018-08-16T07:43:14.582Z,25.40
2018-08-16T07:48:13.975Z,26.00
2018-08-16T07:50:42.097Z,26.30
2018-08-16T07:53:13.497Z,26.30
2018-08-16T07:58:09.542Z,24.80
2018-08-16T08:00:37.661Z,25.60
2018-08-16T08:03:05.790Z,25.70
2018-08-16T08:05:33.996Z,25.40
2018-08-16T08:08:02.225Z,25.60
2018-08-16T08:10:30.353Z,25.80
2018-08-16T08:12:58.477Z,25.40
2018-08-16T08:15:26.638Z,25.60
2018-08-16T08:17:54.756Z,25.60
2018-08-16T08:20:22.888Z,25.10
2018-08-16T08:22:51.052Z,26.20
2018-08-16T08:27:47.146Z,26.50
2018-08-16T08:30:16.119Z,25.80
2018-08-16T08:32:44.271Z,26.40
2018-08-16T08:35:13.955Z,26.50
2018-08-16T08:37:54.174Z,27.30
2018-08-16T08:40:22.356Z,27.10
2018-08-16T08:42:50.476Z,27.50
2018-08-16T08:45:18.706Z,28.10
2018-08-16T08:47:47.692Z,29.00
2018-08-16T08:50:15.876Z,29.00
2018-08-16T08:52:43.995Z,28.30
2018-08-16T08:55:23.453Z,28.90
2018-08-16T08:58:57.302Z,30.70
2018-08-16T09:01:26.081Z,31.20
2018-08-16T09:03:54.338Z,31.40
2018-08-16T09:06:22.478Z,30.50
2018-08-16T09:08:50.625Z,31.60
2018-08-16T09:14:05.186Z,31.60
2018-08-16T09:16:35.538Z,31.60
2018-08-16T09:19:04.230Z,32.60
2018-08-16T09:26:34.184Z,30.90
2018-08-16T09:29:02.363Z,30.00
2018-08-16T09:31:42.032Z,31.90
2018-08-16T09:34:21.081Z,32.60
2018-08-16T09:36:49.352Z,33.20
2018-08-16T09:39:17.546Z,32.40
2018-08-16T09:41:45.644Z,32.40
2018-08-16T09:44:14.152Z,33.70
2018-08-16T09:46:59.422Z,33.00
2018-08-16T09:49:28.708Z,31.80
2018-08-16T09:51:56.878Z,32.60
2018-08-16T09:56:53.518Z,32.40
2018-08-16T09:59:21.717Z,32.30
2018-08-16T10:04:17.817Z,31.80
2018-08-16T10:06:46.303Z,30.90
2018-08-16T10:09:19.268Z,29.50
2018-08-16T10:11:47.857Z,31.60
2018-08-16T10:14:16.332Z,31.60
2018-08-16T10:24:08.378Z,31.10
2018-08-16T10:26:36.597Z,31.40
2018-08-16T10:29:05.355Z,32.20
2018-08-16T10:31:33.558Z,31.40
2018-08-16T10:34:01.721Z,31.30
2018-08-16T10:36:29.892Z,32.10
2018-08-16T10:38:58.061Z,32.20
2018-08-16T10:41:26.320Z,31.80
2018-08-16T10:43:54.748Z,32.10
2018-08-16T10:46:22.949Z,31.70
2018-08-16T10:48:51.114Z,32.10
2018-08-16T10:51:19.338Z,32.20
2018-08-16T10:53:47.505Z,31.50
2018-08-16T10:56:15.689Z,32.10
2018-08-16T10:58:43.910Z,31.20
2018-08-16T11:01:12.087Z,32.30
2018-08-16T11:03:40.284Z,32.10
2018-08-16T11:06:08.473Z,33.30
2018-08-16T11:13:32.574Z,32.00
2018-08-16T11:18:28.992Z,32.80
2018-08-16T11:20:57.172Z,31.70
2018-08-16T11:23:25.365Z,33.50
2018-08-16T11:25:53.533Z,33.90
2018-08-16T11:28:22.668Z,34.00
2018-08-16T11:30:50.860Z,34.50
2018-08-16T11:33:19.091Z,33.60
2018-08-16T11:35:47.253Z,33.80
2018-08-16T11:38:15.442Z,33.80
2018-08-16T11:40:43.724Z,33.30
2018-08-16T11:43:11.833Z,33.80
2018-08-16T11:45:40.030Z,34.00
2018-08-16T11:48:08.296Z,33.30
2018-08-16T11:50:36.595Z,32.00
2018-08-16T11:53:04.790Z,31.40
2018-08-16T11:55:33.004Z,32.50
2018-08-16T11:58:01.181Z,32.50
2018-08-16T12:00:29.377Z,34.70
2018-08-16T12:02:57.566Z,33.00
2018-08-16T12:05:25.765Z,32.70
2018-08-16T12:07:53.951Z,32.50
2018-08-16T12:10:22.397Z,33.50
2018-08-16T12:12:50.607Z,33.10
2018-08-16T12:15:18.826Z,33.20
2018-08-16T12:17:47.007Z,33.10
2018-08-16T12:20:15.177Z,33.60
2018-08-16T12:22:43.348Z,34.30
2018-08-16T12:25:11.506Z,34.50
2018-08-16T12:27:39.713Z,33.20
2018-08-16T12:30:08.828Z,31.90
2018-08-16T12:32:37.230Z,32.00
2018-08-16T12:37:34.186Z,32.60
2018-08-16T12:40:02.373Z,31.60
2018-08-16T12:52:22.230Z,33.00
2018-08-16T12:54:50.637Z,32.40
2018-08-16T12:59:46.726Z,33.00
2018-08-16T13:02:15.772Z,33.40
2018-08-16T13:04:43.964Z,33.80
2018-08-16T13:07:12.296Z,33.80
2018-08-16T13:14:36.342Z,31.60
2018-08-16T13:17:04.614Z,33.60
2018-08-16T13:24:28.649Z,34.60
2018-08-16T13:26:56.810Z,33.40
2018-08-16T13:29:24.965Z,33.40
2018-08-16T13:31:53.141Z,33.50
2018-08-16T13:36:50.000Z,33.70
2018-08-16T13:39:18.173Z,33.20
2018-08-16T13:41:46.339Z,32.90
2018-08-16T13:44:14.492Z,33.50
2018-08-16T13:46:42.670Z,32.60
2018-08-16T13:49:10.857Z,33.30
2018-08-16T13:51:41.294Z,33.60
2018-08-16T13:54:09.484Z,33.30
2018-08-16T13:56:37.701Z,32.30
2018-08-16T13:59:06.205Z,32.30
2018-08-16T14:01:34.401Z,31.60
2018-08-16T14:04:02.576Z,31.20
2018-08-16T14:06:30.728Z,31.10
2018-08-16T14:08:58.899Z,31.20
2018-08-16T14:11:27.077Z,31.00
2018-08-16T14:13:55.253Z,31.00
2018-08-16T14:16:23.421Z,31.50
2018-08-16T14:21:19.894Z,32.40
2018-08-16T14:23:48.053Z,32.30
2018-08-16T14:26:16.257Z,31.80
2018-08-16T14:28:44.414Z,31.80
2018-08-16T14:31:12.578Z,32.20
2018-08-16T14:33:40.733Z,31.80
2018-08-16T14:38:36.817Z,31.60
2018-08-16T14:41:04.992Z,31.50
2018-08-16T14:43:33.141Z,31.70
2018-08-16T14:46:01.418Z,31.60
2018-08-16T14:48:29.585Z,31.60
2018-08-16T14:50:57.763Z,31.30
2018-08-16T14:53:25.897Z,31.40
2018-08-16T14:55:54.045Z,31.10
2018-08-16T14:58:22.199Z,31.40
2018-08-16T15:00:50.398Z,31.60
2018-08-16T15:05:46.603Z,31.50
2018-08-16T15:10:42.709Z,31.10
2018-08-16T15:13:10.880Z,30.80
2018-08-16T15:15:39.050Z,30.50
2018-08-16T15:18:07.312Z,30.30
2018-08-16T15:20:35.462Z,30.30
2018-08-16T15:23:03.812Z,30.30
2018-08-16T15:25:31.962Z,30.30
2018-08-16T15:28:00.134Z,30.10
2018-08-16T15:30:28.297Z,30.20
2018-08-16T15:32:56.467Z,30.40
2018-08-16T15:35:24.641Z,30.10
2018-08-16T15:37:52.814Z,30.20
2018-08-16T15:40:20.986Z,30.50
2018-08-16T15:42:49.163Z,30.70
2018-08-16T15:47:45.266Z,30.20
2018-08-16T15:50:13.417Z,30.20
2018-08-16T15:52:41.580Z,30.50
2018-08-16T15:55:09.745Z,30.60
2018-08-16T15:57:37.901Z,30.60
2018-08-16T16:00:09.824Z,30.50
2018-08-16T16:02:38.120Z,30.30
2018-08-16T16:05:06.309Z,30.10
2018-08-16T16:07:34.491Z,30.20
2018-08-16T16:10:02.670Z,30.30
2018-08-16T16:12:30.860Z,30.30
2018-08-16T16:14:59.023Z,30.10
2018-08-16T16:17:27.367Z,30.10
2018-08-16T16:19:55.389Z,29.90
2018-08-16T16:22:23.548Z,29.80
2018-08-16T16:24:51.725Z,29.80
2018-08-16T16:27:19.926Z,29.70
2018-08-16T16:29:48.081Z,29.70
2018-08-16T16:32:16.241Z,29.80
2018-08-16T16:34:44.388Z,29.70
2018-08-16T16:37:12.557Z,29.70
2018-08-16T16:39:40.725Z,29.70
2018-08-16T16:44:36.847Z,29.80
2018-08-16T16:47:05.345Z,29.80
2018-08-16T16:49:33.518Z,29.80
2018-08-16T16:52:01.710Z,29.70
2018-08-16T16:54:29.864Z,29.70
2018-08-16T16:56:58.074Z,29.60
2018-08-16T16:59:26.279Z,29.60
2018-08-16T17:01:54.465Z,29.60
2018-08-16T17:04:22.624Z,29.50
2018-08-16T17:06:50.801Z,29.50
2018-08-16T17:09:18.974Z,29.50
2018-08-16T17:14:15.069Z,29.50
2018-08-16T17:16:43.217Z,29.50
2018-08-16T17:19:11.393Z,29.40
2018-08-16T17:21:39.548Z,29.30
2018-08-16T17:24:07.738Z,29.20
2018-08-16T17:26:35.934Z,29.10
2018-08-16T17:29:04.428Z,29.10
2018-08-16T17:31:32.633Z,28.80
2018-08-16T17:34:00.862Z,28.80
2018-08-16T17:36:29.029Z,28.70
2018-08-16T17:38:57.178Z,28.60
2018-08-16T17:41:25.320Z,28.70
2018-08-16T17:43:53.492Z,28.60
2018-08-16T17:46:21.685Z,28.50
2018-08-16T17:48:54.232Z,28.40
2018-08-16T17:51:22.458Z,28.20
2018-08-16T17:53:50.632Z,28.00
2018-08-16T17:58:46.706Z,27.80
2018-08-16T18:03:43.184Z,27.30
2018-08-16T18:06:11.362Z,27.20
2018-08-16T18:08:39.516Z,27.00
2018-08-16T18:11:07.678Z,26.80
2018-08-16T18:13:35.834Z,26.70
2018-08-16T18:16:04.009Z,26.50
2018-08-16T18:18:32.314Z,26.30
2018-08-16T18:23:28.401Z,25.90
2018-08-16T18:25:56.603Z,25.80
2018-08-16T18:28:24.787Z,25.60
2018-08-16T18:30:52.967Z,25.40
2018-08-16T18:33:21.742Z,25.30
2018-08-16T18:35:49.913Z,25.10
2018-08-16T18:38:18.918Z,25.00
2018-08-16T18:43:15.037Z,24.70
2018-08-16T18:45:43.221Z,24.70
2018-08-16T18:53:07.392Z,24.40
2018-08-16T18:58:03.723Z,24.40
2018-08-16T19:07:55.757Z,23.90
2018-08-16T19:10:23.940Z,23.90
2018-08-16T19:12:52.105Z,23.70
2018-08-16T19:15:20.337Z,23.60
2018-08-16T19:17:48.517Z,23.60
2018-08-16T19:20:16.748Z,23.50
2018-08-16T19:22:44.978Z,23.50
2018-08-16T19:25:13.152Z,23.40
2018-08-16T19:35:05.430Z,23.10
2018-08-16T19:37:33.658Z,23.10
2018-08-16T19:40:01.847Z,23.10
2018-08-16T19:42:30.030Z,23.00
2018-08-16T19:44:58.245Z,22.90
2018-08-16T19:47:26.433Z,22.80
2018-08-16T19:49:54.702Z,23.00
2018-08-16T19:52:22.879Z,22.80
2018-08-16T19:54:51.113Z,22.70
2018-08-16T20:02:20.747Z,22.30
2018-08-16T20:04:48.949Z,22.20
2018-08-16T20:07:17.124Z,22.10
2018-08-16T20:14:41.203Z,22.00
2018-08-16T20:19:37.517Z,21.90
2018-08-16T20:24:37.961Z,21.80
2018-08-16T20:27:06.394Z,21.70
2018-08-16T20:29:34.600Z,21.60
2018-08-16T20:32:02.805Z,21.60
2018-08-16T20:34:30.962Z,21.60
2018-08-16T20:39:27.167Z,21.50
2018-08-16T20:41:55.417Z,21.40
2018-08-16T20:44:23.775Z,21.40
2018-08-16T20:46:51.947Z,21.30
2018-08-16T20:49:20.180Z,21.10
2018-08-16T20:51:48.818Z,20.90
2018-08-16T20:54:17.013Z,20.90
2018-08-16T20:56:45.184Z,20.90
2018-08-16T20:59:13.369Z,20.80
2018-08-16T21:01:41.594Z,20.70
2018-08-16T21:04:09.791Z,20.80
2018-08-16T21:09:07.432Z,20.40
2018-08-16T21:11:35.773Z,20.30
2018-08-16T21:14:04.098Z,20.20
2018-08-16T21:16:32.269Z,20.20
2018-08-16T21:21:28.474Z,20.10
2018-08-16T21:23:56.642Z,20.00
2018-08-16T21:26:24.848Z,20.10
2018-08-16T21:31:21.148Z,19.90
2018-08-16T21:33:49.322Z,19.80
2018-08-16T21:36:17.562Z,19.80
2018-08-16T21:38:45.730Z,19.70
2018-08-16T21:41:13.936Z,19.50
2018-08-16T21:43:42.153Z,19.60
2018-08-16T21:46:10.374Z,19.70
2018-08-16T21:48:38.619Z,19.70
2018-08-16T21:51:06.839Z,19.70
2018-08-16T21:53:35.213Z,19.60
2018-08-16T22:06:10.550Z,19.30
2018-08-16T22:08:39.257Z,19.30
2018-08-16T22:18:32.040Z,19.20
2018-08-16T22:25:56.225Z,19.20
2018-08-16T22:33:20.490Z,19.00
2018-08-16T22:35:48.665Z,19.00
2018-08-16T22:38:16.860Z,19.00
2018-08-16T22:40:45.243Z,19.00
2018-08-16T22:43:13.437Z,18.90
2018-08-16T22:45:41.736Z,18.80
2018-08-16T22:50:37.891Z,18.80
2018-08-16T22:53:06.269Z,18.70
2018-08-16T22:55:34.635Z,18.70
2018-08-16T22:58:02.823Z,18.70
2018-08-16T23:00:31.006Z,18.70
2018-08-16T23:02:59.417Z,18.70
2018-08-16T23:05:27.644Z,18.70
2018-08-16T23:07:55.865Z,18.60
2018-08-16T23:10:24.037Z,18.50
2018-08-16T23:12:52.226Z,18.60
2018-08-16T23:15:20.433Z,18.60
2018-08-16T23:17:48.652Z,18.50
2018-08-16T23:22:44.814Z,18.50
2018-08-16T23:25:13.014Z,18.40
2018-08-16T23:27:41.189Z,18.40
2018-08-16T23:30:10.933Z,18.40
2018-08-16T23:32:39.183Z,18.40
2018-08-16T23:47:27.882Z,18.20
2018-08-16T23:49:56.050Z,18.10
2018-08-16T23:52:24.205Z,18.10
2018-08-16T23:54:52.441Z,18.10
2018-08-16T23:57:20.950Z,18.10
2018-08-16T23:59:49.150Z,18.00
